createdAt,value
2018-04-29T00:02:05.500Z,58.95
2018-04-29T00:04:34.501Z,58.97
2018-04-29T00:07:03.519Z,59.30
2018-04-29T00:09:31.754Z,59.28
2018-04-29T00:12:00.773Z,59.11
2018-04-29T00:14:29.014Z,59.11
2018-04-29T00:16:58.778Z,59.22
2018-04-29T00:19:27.009Z,59.51
2018-04-29T00:21:57.022Z,59.51
2018-04-29T00:24:26.773Z,59.24
2018-04-29T00:26:55.018Z,59.67
2018-04-29T00:29:24.283Z,59.99
2018-04-29T00:31:52.518Z,60.08
2018-04-29T00:34:20.754Z,59.94
2018-04-29T00:36:49.006Z,60.27
2018-04-29T00:39:17.330Z,59.90
2018-04-29T00:41:45.582Z,59.90
2018-04-29T00:44:15.330Z,59.85
2018-04-29T00:46:43.579Z,60.22
2018-04-29T00:49:12.577Z,60.44
2018-04-29T00:51:59.481Z,60.58
2018-04-29T00:54:28.489Z,60.50
2018-04-29T00:56:57.500Z,60.34
2018-04-29T00:59:25.761Z,60.45
2018-04-29T01:01:54.762Z,60.66
2018-04-29T01:04:23.778Z,60.26
2018-04-29T01:06:52.040Z,60.27
2018-04-29T01:09:20.282Z,60.14
2018-04-29T01:11:49.301Z,60.72
2018-04-29T01:14:17.561Z,60.39
2018-04-29T01:16:46.558Z,60.43
2018-04-29T01:19:15.865Z,60.92
2018-04-29T01:21:44.885Z,61.02
2018-04-29T01:24:13.133Z,61.04
2018-04-29T01:26:42.139Z,61.18
2018-04-29T01:29:10.602Z,61.11
2018-04-29T01:31:39.607Z,61.13
2018-04-29T01:34:07.838Z,61.04
2018-04-29T01:36:36.260Z,61.00
2018-04-29T01:39:05.277Z,60.76
2018-04-29T01:41:33.519Z,60.85
2018-04-29T01:44:02.534Z,60.82
2018-04-29T01:46:30.761Z,60.64
2018-04-29T01:48:59.778Z,60.88
2018-04-29T01:51:28.791Z,60.88
2018-04-29T01:53:57.030Z,60.55
2018-04-29T01:56:26.786Z,60.48
2018-04-29T01:58:55.018Z,60.80
2018-04-29T02:01:23.259Z,60.75
2018-04-29T02:03:51.506Z,60.46
2018-04-29T02:06:19.749Z,59.91
2018-04-29T02:08:48.762Z,59.01
2018-04-29T02:11:17.756Z,58.93
2018-04-29T02:13:45.994Z,58.30
2018-04-29T02:16:14.242Z,57.91
2018-04-29T02:18:42.486Z,58.48
2018-04-29T02:21:11.559Z,58.71
2018-04-29T02:23:40.577Z,58.84
2018-04-29T02:26:09.719Z,59.45
2018-04-29T02:28:37.985Z,59.48
2018-04-29T02:31:06.250Z,59.48
2018-04-29T02:33:34.505Z,59.30
2018-04-29T02:36:02.788Z,59.58
2018-04-29T02:38:31.017Z,59.75
2018-04-29T02:41:00.799Z,60.05
2018-04-29T02:43:30.046Z,59.69
2018-04-29T02:45:59.088Z,59.93
2018-04-29T02:48:27.375Z,60.21
2018-04-29T02:50:55.619Z,60.16
2018-04-29T02:53:23.869Z,60.15
2018-04-29T02:55:52.382Z,60.25
2018-04-29T02:58:20.673Z,60.71
2018-04-29T03:00:48.943Z,60.44
2018-04-29T03:03:17.237Z,60.42
2018-04-29T03:05:45.485Z,61.05
2018-04-29T03:08:13.742Z,61.29
2018-04-29T03:10:42.014Z,61.23
2018-04-29T03:13:10.246Z,61.95
2018-04-29T03:15:39.266Z,61.78
2018-04-29T03:18:08.309Z,62.07
2018-04-29T03:20:36.577Z,62.35
2018-04-29T03:23:04.818Z,62.32
2018-04-29T03:25:34.097Z,61.75
2018-04-29T03:28:03.146Z,62.32
2018-04-29T03:30:31.438Z,62.36
2018-04-29T03:32:59.719Z,62.99
2018-04-29T03:35:27.963Z,62.44
2018-04-29T03:37:56.217Z,62.55
2018-04-29T03:40:25.236Z,62.00
2018-04-29T03:42:53.468Z,62.73
2018-04-29T03:45:21.693Z,63.27
2018-04-29T03:47:49.943Z,62.85
2018-04-29T03:50:18.952Z,62.95
2018-04-29T03:52:47.191Z,62.68
2018-04-29T03:55:15.437Z,62.95
2018-04-29T03:58:01.400Z,63.22
2018-04-29T04:01:02.494Z,63.29
2018-04-29T04:03:44.427Z,63.16
2018-04-29T04:06:12.925Z,63.01
2018-04-29T04:08:41.176Z,63.07
2018-04-29T04:11:10.171Z,63.25
2018-04-29T04:13:39.189Z,63.35
2018-04-29T04:16:08.118Z,63.58
2018-04-29T04:18:36.378Z,63.22
2018-04-29T04:21:04.607Z,63.27
2018-04-29T04:23:33.616Z,63.10
2018-04-29T04:26:01.873Z,63.47
2018-04-29T04:28:30.110Z,63.46
2018-04-29T04:30:58.343Z,63.31
2018-04-29T04:33:26.584Z,63.17
2018-04-29T04:35:55.585Z,63.21
2018-04-29T04:38:24.610Z,62.94
2018-04-29T04:40:52.846Z,62.79
2018-04-29T04:43:21.838Z,62.44
2018-04-29T04:45:50.858Z,62.84
2018-04-29T04:48:19.094Z,62.46
2018-04-29T04:50:48.102Z,62.17
2018-04-29T04:53:17.109Z,62.86
2018-04-29T04:55:46.280Z,62.35
2018-04-29T04:58:15.291Z,62.25
2018-04-29T05:00:45.006Z,62.11
2018-04-29T05:03:14.102Z,62.20
2018-04-29T05:05:43.105Z,62.27
2018-04-29T05:08:11.349Z,62.49
2018-04-29T05:10:40.978Z,62.56
2018-04-29T05:13:09.210Z,62.72
2018-04-29T05:15:37.466Z,62.50
2018-04-29T05:18:05.698Z,62.39
2018-04-29T05:20:34.701Z,62.59
2018-04-29T05:23:02.946Z,62.82
2018-04-29T05:25:31.186Z,63.14
2018-04-29T05:27:59.428Z,63.08
2018-04-29T05:30:27.751Z,63.06
2018-04-29T05:32:55.996Z,63.13
2018-04-29T05:35:24.299Z,63.02
2018-04-29T05:37:52.519Z,62.39
2018-04-29T05:40:21.523Z,62.54
2018-04-29T05:42:49.847Z,62.50
2018-04-29T05:45:18.127Z,63.17
2018-04-29T05:47:46.398Z,62.82
2018-04-29T05:50:14.875Z,62.37
2018-04-29T05:52:43.107Z,62.70
2018-04-29T05:55:12.111Z,62.06
2018-04-29T05:57:40.366Z,61.73
2018-04-29T06:00:09.674Z,61.70
2018-04-29T06:02:38.669Z,61.26
2018-04-29T06:05:06.948Z,61.41
2018-04-29T06:07:35.194Z,60.98
2018-04-29T06:10:03.458Z,61.28
2018-04-29T06:12:32.501Z,61.94
2018-04-29T06:15:00.759Z,61.83
2018-04-29T06:17:29.779Z,61.93
2018-04-29T06:19:58.038Z,61.31
2018-04-29T06:22:27.138Z,61.07
2018-04-29T06:24:55.378Z,61.06
2018-04-29T06:27:23.614Z,60.67
2018-04-29T06:29:51.869Z,60.59
2018-04-29T06:32:20.153Z,60.80
2018-04-29T06:34:48.586Z,60.13
2018-04-29T06:37:18.381Z,60.24
2018-04-29T06:39:47.413Z,59.68
2018-04-29T06:42:15.681Z,59.47
2018-04-29T06:44:45.424Z,59.42
2018-04-29T06:47:13.726Z,59.15
2018-04-29T06:49:42.154Z,58.88
2018-04-29T06:52:11.159Z,58.81
2018-04-29T06:54:39.405Z,59.82
2018-04-29T06:57:07.686Z,58.84
2018-04-29T06:59:36.695Z,58.11
2018-04-29T07:02:05.705Z,58.12
2018-04-29T07:04:33.977Z,57.42
2018-04-29T07:07:02.241Z,58.03
2018-04-29T07:09:31.251Z,57.38
2018-04-29T07:11:59.547Z,57.13
2018-04-29T07:14:27.798Z,56.54
2018-04-29T07:16:56.043Z,56.01
2018-04-29T07:19:25.046Z,56.55
2018-04-29T07:21:54.084Z,56.02
2018-04-29T07:24:22.385Z,55.52
2018-04-29T07:26:50.617Z,56.20
2018-04-29T07:29:18.926Z,56.66
2018-04-29T07:31:47.164Z,55.81
2018-04-29T07:34:15.690Z,55.20
2018-04-29T07:36:43.940Z,54.23
2018-04-29T07:39:12.176Z,53.77
2018-04-29T07:41:41.232Z,54.19
2018-04-29T07:44:09.529Z,54.10
2018-04-29T07:46:38.817Z,52.64
2018-04-29T07:49:07.835Z,52.83
2018-04-29T07:51:36.848Z,52.96
2018-04-29T07:54:05.150Z,51.96
2018-04-29T07:56:33.392Z,52.50
2018-04-29T07:59:02.446Z,52.03
2018-04-29T08:01:30.733Z,51.27
2018-04-29T08:03:59.745Z,51.21
2018-04-29T08:06:27.991Z,51.19
2018-04-29T08:08:56.268Z,52.05
2018-04-29T08:11:24.495Z,50.91
2018-04-29T08:13:52.754Z,50.72
2018-04-29T08:16:21.791Z,50.08
2018-04-29T08:18:50.041Z,49.27
2018-04-29T08:21:18.315Z,49.72
2018-04-29T08:23:46.811Z,50.02
2018-04-29T08:26:15.054Z,49.87
2018-04-29T08:28:44.095Z,49.54
2018-04-29T08:31:12.347Z,48.73
2018-04-29T08:33:40.590Z,49.30
2018-04-29T08:36:09.686Z,48.77
2018-04-29T08:38:39.430Z,48.21
2018-04-29T08:41:07.684Z,48.85
2018-04-29T08:43:36.711Z,48.50
2018-04-29T08:46:05.205Z,48.34
2018-04-29T08:48:33.459Z,47.37
2018-04-29T08:51:01.693Z,46.32
2018-04-29T08:53:31.469Z,46.47
2018-04-29T08:55:59.766Z,45.09
2018-04-29T08:58:27.963Z,45.83
2018-04-29T09:00:56.961Z,45.57
2018-04-29T09:03:25.977Z,44.15
2018-04-29T09:05:54.229Z,44.70
2018-04-29T09:08:23.489Z,46.07
2018-04-29T09:10:51.717Z,45.17
2018-04-29T09:13:20.002Z,45.00
2018-04-29T09:15:48.259Z,45.20
2018-04-29T09:18:16.531Z,43.20
2018-04-29T09:20:45.542Z,42.19
2018-04-29T09:23:13.795Z,44.50
2018-04-29T09:25:42.809Z,42.56
2018-04-29T09:28:11.321Z,42.92
2018-04-29T09:30:39.554Z,42.75
2018-04-29T09:33:08.554Z,44.21
2018-04-29T09:35:36.870Z,42.88
2018-04-29T09:38:05.118Z,42.63
2018-04-29T09:40:33.354Z,43.56
2018-04-29T09:43:02.428Z,42.76
2018-04-29T09:45:30.700Z,42.72
2018-04-29T09:47:58.930Z,41.60
2018-04-29T09:50:27.986Z,40.78
2018-04-29T09:52:57.763Z,40.28
2018-04-29T09:55:26.042Z,40.96
2018-04-29T09:57:55.006Z,41.17
2018-04-29T10:00:27.222Z,40.06
2018-04-29T10:03:01.169Z,39.19
2018-04-29T10:05:30.271Z,40.63
2018-04-29T10:07:59.282Z,39.17
2018-04-29T10:10:27.514Z,37.77
2018-04-29T10:12:57.273Z,37.89
2018-04-29T10:15:25.559Z,37.68
2018-04-29T10:17:53.802Z,38.70
2018-04-29T10:20:22.813Z,37.35
2018-04-29T10:22:51.083Z,37.18
2018-04-29T10:25:19.654Z,37.56
2018-04-29T10:27:47.950Z,38.23
2018-04-29T10:30:16.198Z,38.57
2018-04-29T10:32:45.295Z,38.11
2018-04-29T10:35:13.474Z,38.69
2018-04-29T10:37:42.496Z,39.83
2018-04-29T10:40:10.761Z,39.26
2018-04-29T10:42:39.044Z,39.68
2018-04-29T10:45:07.556Z,40.61
2018-04-29T10:47:35.823Z,40.88
2018-04-29T10:50:04.115Z,39.91
2018-04-29T10:52:32.446Z,39.33
2018-04-29T10:55:01.430Z,38.76
2018-04-29T10:57:29.715Z,38.54
2018-04-29T10:59:58.742Z,37.76
2018-04-29T11:02:26.982Z,39.13
2018-04-29T11:04:56.047Z,38.60
2018-04-29T11:07:24.310Z,37.55
2018-04-29T11:09:52.566Z,39.07
2018-04-29T11:12:20.819Z,36.54
2018-04-29T11:14:49.074Z,36.46
2018-04-29T11:17:17.371Z,37.68
2018-04-29T11:19:45.642Z,37.22
2018-04-29T11:22:13.919Z,36.63
2018-04-29T11:24:42.123Z,36.11
2018-04-29T11:27:12.051Z,35.43
2018-04-29T11:29:40.289Z,35.29
2018-04-29T11:32:08.591Z,34.32
2018-04-29T11:34:36.842Z,36.56
2018-04-29T11:37:05.140Z,34.82
2018-04-29T11:39:33.394Z,34.04
2018-04-29T11:42:01.650Z,34.64
2018-04-29T11:44:29.937Z,34.28
2018-04-29T11:46:58.235Z,33.68
2018-04-29T11:49:26.472Z,34.33
2018-04-29T11:51:55.475Z,33.55
2018-04-29T11:54:24.154Z,34.73
2018-04-29T11:56:52.433Z,33.88
2018-04-29T11:59:20.726Z,34.28
2018-04-29T12:01:49.311Z,33.76
2018-04-29T12:04:17.472Z,34.85
2018-04-29T12:06:45.726Z,33.68
2018-04-29T12:09:14.790Z,32.18
2018-04-29T12:11:43.050Z,31.76
2018-04-29T12:14:11.280Z,32.88
2018-04-29T12:16:40.335Z,30.81
2018-04-29T12:19:10.097Z,32.24
2018-04-29T12:21:38.358Z,31.63
2018-04-29T12:24:06.656Z,32.33
2018-04-29T12:26:34.971Z,32.34
2018-04-29T12:29:04.020Z,32.53
2018-04-29T12:31:32.308Z,31.50
2018-04-29T12:34:00.574Z,30.05
2018-04-29T12:36:28.854Z,31.56
2018-04-29T12:38:57.096Z,31.96
2018-04-29T12:41:26.117Z,31.70
2018-04-29T12:43:54.405Z,30.60
2018-04-29T12:46:22.640Z,30.37
2018-04-29T12:48:51.651Z,30.32
2018-04-29T12:51:20.210Z,30.28
2018-04-29T12:53:48.431Z,29.52
2018-04-29T12:56:16.669Z,30.29
2018-04-29T12:58:45.715Z,30.34
2018-04-29T13:01:14.735Z,30.39
2018-04-29T13:03:43.733Z,30.46
2018-04-29T13:06:13.489Z,30.89
2018-04-29T13:08:41.774Z,31.48
2018-04-29T13:11:10.067Z,30.36
2018-04-29T13:13:38.560Z,29.55
2018-04-29T13:16:06.808Z,28.34
2018-04-29T13:18:35.045Z,28.40
2018-04-29T13:21:04.150Z,28.50
2018-04-29T13:23:33.211Z,27.56
2018-04-29T13:26:02.259Z,28.85
2018-04-29T13:28:30.509Z,28.30
2018-04-29T13:30:59.567Z,28.97
2018-04-29T13:33:27.809Z,27.55
2018-04-29T13:35:56.110Z,29.19
2018-04-29T13:38:24.337Z,29.20
2018-04-29T13:40:52.598Z,28.09
2018-04-29T13:43:20.883Z,29.17
2018-04-29T13:45:49.881Z,29.39
2018-04-29T13:48:18.118Z,29.37
2018-04-29T13:50:47.146Z,29.47
2018-04-29T13:53:16.145Z,28.98
2018-04-29T13:55:44.394Z,29.15
2018-04-29T13:58:13.670Z,28.97
2018-04-29T14:00:41.898Z,30.45
2018-04-29T14:03:10.147Z,28.96
2018-04-29T14:05:38.393Z,29.28
2018-04-29T14:08:07.418Z,30.94
2018-04-29T14:10:36.448Z,30.31
2018-04-29T14:13:05.449Z,29.50
2018-04-29T14:15:33.685Z,29.40
2018-04-29T14:18:02.707Z,29.97
2018-04-29T14:20:30.941Z,30.77
2018-04-29T14:22:59.174Z,30.60
2018-04-29T14:25:27.422Z,29.64
2018-04-29T14:27:55.659Z,30.08
2018-04-29T14:30:24.686Z,30.31
2018-04-29T14:32:52.930Z,29.21
2018-04-29T14:35:21.163Z,30.90
2018-04-29T14:37:49.425Z,30.24
2018-04-29T14:40:17.670Z,30.64
2018-04-29T14:42:46.678Z,29.76
2018-04-29T14:45:15.690Z,30.39
2018-04-29T14:47:43.977Z,30.75
2018-04-29T14:50:12.209Z,30.73
2018-04-29T14:52:41.221Z,29.79
2018-04-29T14:55:09.520Z,31.22
2018-04-29T14:57:37.763Z,30.67
2018-04-29T15:00:06.774Z,29.88
2018-04-29T15:02:35.018Z,30.37
2018-04-29T15:05:04.034Z,30.83
2018-04-29T15:07:32.294Z,33.37
2018-04-29T15:10:01.306Z,31.12
2018-04-29T15:12:29.558Z,31.57
2018-04-29T15:14:58.561Z,31.64
2018-04-29T15:17:27.584Z,31.67
2018-04-29T15:19:55.849Z,32.32
2018-04-29T15:22:24.117Z,31.37
2018-04-29T15:24:52.388Z,31.46
2018-04-29T15:27:21.398Z,31.63
2018-04-29T15:29:49.649Z,31.65
2018-04-29T15:32:18.658Z,31.44
2018-04-29T15:34:47.925Z,32.21
2018-04-29T15:37:16.161Z,32.04
2018-04-29T15:39:44.428Z,31.98
2018-04-29T15:42:12.686Z,32.28
2018-04-29T15:44:40.962Z,32.30
2018-04-29T15:47:09.210Z,32.87
2018-04-29T15:49:38.231Z,33.45
2018-04-29T15:52:06.474Z,32.84
2018-04-29T15:54:35.474Z,31.91
2018-04-29T15:57:04.512Z,28.92
2018-04-29T15:59:32.825Z,28.42
2018-04-29T16:02:01.761Z,27.15
2018-04-29T16:04:30.165Z,26.50
2018-04-29T16:06:58.409Z,26.26
2018-04-29T16:09:27.411Z,26.11
2018-04-29T16:11:55.657Z,25.98
2018-04-29T16:14:24.678Z,26.33
2018-04-29T16:16:52.918Z,26.31
2018-04-29T16:19:21.983Z,26.29
2018-04-29T16:21:50.230Z,26.47
2018-04-29T16:24:18.517Z,27.04
2018-04-29T16:26:46.803Z,26.29
2018-04-29T16:29:15.097Z,26.35
2018-04-29T16:31:43.331Z,26.27
2018-04-29T16:34:11.598Z,29.46
2018-04-29T16:36:39.841Z,29.18
2018-04-29T16:39:08.867Z,29.52
2018-04-29T16:41:37.871Z,28.21
2018-04-29T16:44:06.132Z,29.81
2018-04-29T16:46:35.151Z,27.78
2018-04-29T16:49:03.386Z,29.31
2018-04-29T16:51:32.410Z,28.19
2018-04-29T16:54:00.688Z,29.52
2018-04-29T16:56:28.924Z,27.40
2018-04-29T16:58:57.922Z,27.07
2018-04-29T17:01:26.942Z,27.15
2018-04-29T17:03:55.195Z,27.12
2018-04-29T17:06:24.208Z,27.42
2018-04-29T17:08:52.497Z,27.37
2018-04-29T17:11:20.966Z,27.02
2018-04-29T17:13:49.193Z,27.26
2018-04-29T17:16:17.457Z,27.62
2018-04-29T17:18:45.746Z,27.65
2018-04-29T17:21:14.788Z,27.34
2018-04-29T17:23:43.055Z,27.75
2018-04-29T17:26:12.177Z,27.55
2018-04-29T17:28:40.470Z,27.78
2018-04-29T17:31:08.772Z,27.69
2018-04-29T17:33:38.568Z,27.55
2018-04-29T17:36:06.855Z,27.65
2018-04-29T17:38:36.787Z,28.32
2018-04-29T17:41:06.573Z,28.15
2018-04-29T17:43:34.857Z,28.69
2018-04-29T17:46:03.112Z,28.86
2018-04-29T17:48:31.411Z,28.88
2018-04-29T17:50:59.681Z,28.84
2018-04-29T17:53:28.715Z,29.33
2018-04-29T17:55:57.027Z,29.23
2018-04-29T17:58:25.351Z,29.15
2018-04-29T18:00:55.135Z,29.63
2018-04-29T18:03:23.442Z,29.87
2018-04-29T18:05:53.145Z,30.05
2018-04-29T18:08:22.205Z,30.05
2018-04-29T18:10:50.473Z,30.61
2018-04-29T18:13:18.771Z,29.96
2018-04-29T18:15:47.032Z,30.41
2018-04-29T18:18:15.326Z,30.20
2018-04-29T18:20:43.697Z,29.98
2018-04-29T18:23:11.982Z,30.12
2018-04-29T18:25:40.273Z,30.89
2018-04-29T18:28:09.299Z,30.65
2018-04-29T18:30:37.647Z,30.84
2018-04-29T18:33:06.710Z,30.79
2018-04-29T18:35:34.990Z,31.21
2018-04-29T18:38:03.264Z,31.03
2018-04-29T18:40:31.548Z,31.06
2018-04-29T18:42:59.861Z,31.50
2018-04-29T18:45:28.415Z,31.43
2018-04-29T18:47:57.444Z,31.45
2018-04-29T18:50:26.568Z,31.77
2018-04-29T18:52:55.614Z,31.52
2018-04-29T18:55:24.651Z,31.32
2018-04-29T18:57:52.932Z,31.50
2018-04-29T19:00:21.427Z,31.49
2018-04-29T19:02:49.744Z,31.63
2018-04-29T19:05:18.857Z,32.05
2018-04-29T19:07:47.894Z,32.16
2018-04-29T19:10:16.182Z,32.08
2018-04-29T19:12:44.550Z,32.66
2018-04-29T19:15:12.798Z,32.50
2018-04-29T19:17:41.146Z,32.64
2018-04-29T19:20:10.163Z,32.55
2018-04-29T19:22:38.406Z,32.31
2018-04-29T19:25:07.430Z,32.18
2018-04-29T19:27:35.670Z,32.52
2018-04-29T19:30:04.682Z,32.31
2018-04-29T19:32:33.698Z,32.36
2018-04-29T19:35:01.973Z,32.21
2018-04-29T19:37:30.979Z,32.18
2018-04-29T19:39:59.218Z,32.24
2018-04-29T19:42:28.222Z,32.50
2018-04-29T19:44:57.226Z,32.67
2018-04-29T19:47:25.485Z,32.69
2018-04-29T19:49:54.486Z,32.55
2018-04-29T19:52:23.482Z,32.82
2018-04-29T19:54:51.741Z,32.94
2018-04-29T19:57:20.889Z,32.67
2018-04-29T19:59:49.225Z,32.77
2018-04-29T20:02:18.299Z,33.13
2018-04-29T20:04:48.054Z,32.77
2018-04-29T20:07:16.297Z,32.63
2018-04-29T20:09:45.313Z,33.19
2018-04-29T20:12:13.555Z,33.02
2018-04-29T20:14:42.810Z,33.28
2018-04-29T20:17:11.043Z,32.97
2018-04-29T20:19:40.071Z,33.04
2018-04-29T20:22:08.386Z,33.44
2018-04-29T20:24:36.677Z,33.34
2018-04-29T20:27:05.728Z,33.33
2018-04-29T20:29:34.024Z,33.70
2018-04-29T20:32:02.333Z,33.41
2018-04-29T20:34:30.585Z,33.72
2018-04-29T20:36:59.807Z,33.94
2018-04-29T20:39:28.823Z,34.24
2018-04-29T20:41:57.078Z,34.63
2018-04-29T20:44:26.152Z,34.16
2018-04-29T20:46:54.417Z,34.69
2018-04-29T20:49:22.729Z,34.48
2018-04-29T20:51:51.043Z,34.45
2018-04-29T20:54:19.341Z,34.34
2018-04-29T20:56:49.152Z,34.43
2018-04-29T20:59:18.959Z,34.55
2018-04-29T21:01:48.044Z,34.75
2018-04-29T21:04:16.331Z,34.76
2018-04-29T21:06:44.658Z,35.06
2018-04-29T21:09:12.962Z,34.72
2018-04-29T21:11:41.262Z,34.98
2018-04-29T21:14:09.795Z,34.80
2018-04-29T21:16:38.041Z,35.08
2018-04-29T21:19:07.815Z,35.30
2018-04-29T21:21:36.097Z,35.50
2018-04-29T21:24:04.389Z,35.61
2018-04-29T21:26:32.753Z,35.68
2018-04-29T21:29:01.042Z,35.74
2018-04-29T21:31:29.322Z,35.42
2018-04-29T21:33:57.599Z,35.40
2018-04-29T21:36:25.908Z,35.33
2018-04-29T21:38:54.209Z,35.53
2018-04-29T21:41:22.509Z,35.27
2018-04-29T21:43:50.804Z,35.50
2018-04-29T21:46:19.277Z,35.66
2018-04-29T21:48:47.570Z,35.82
2018-04-29T21:51:16.629Z,35.97
2018-04-29T21:53:44.925Z,36.00
2018-04-29T21:56:13.261Z,35.97
2018-04-29T21:58:42.273Z,36.12
2018-04-29T22:01:10.555Z,36.03
2018-04-29T22:03:38.851Z,35.94
2018-04-29T22:06:08.171Z,35.94
2018-04-29T22:08:37.222Z,36.46
2018-04-29T22:11:05.601Z,36.09
2018-04-29T22:13:34.637Z,36.08
2018-04-29T22:16:02.938Z,36.10
2018-04-29T22:18:31.995Z,36.01
2018-04-29T22:21:00.277Z,36.07
2018-04-29T22:23:28.554Z,36.06
2018-04-29T22:25:56.863Z,36.15
2018-04-29T22:28:25.147Z,36.40
2018-04-29T22:30:53.469Z,35.94
2018-04-29T22:33:22.823Z,36.27
2018-04-29T22:35:51.138Z,36.16
2018-04-29T22:38:19.429Z,36.45
2018-04-29T22:40:47.708Z,36.84
2018-04-29T22:43:16.004Z,36.90
2018-04-29T22:45:45.072Z,36.64
2018-04-29T22:48:13.346Z,36.59
2018-04-29T22:50:41.623Z,36.80
2018-04-29T22:53:09.916Z,36.67
2018-04-29T22:55:39.003Z,36.79
2018-04-29T22:58:07.256Z,36.87
2018-04-29T23:00:35.561Z,36.64
2018-04-29T23:03:03.800Z,36.94
2018-04-29T23:05:32.098Z,37.29
2018-04-29T23:08:00.374Z,36.97
2018-04-29T23:10:28.650Z,37.58
2018-04-29T23:12:56.940Z,36.79
2018-04-29T23:15:25.225Z,36.62
2018-04-29T23:17:55.015Z,36.91
2018-04-29T23:20:23.316Z,36.75
2018-04-29T23:22:52.400Z,36.95
2018-04-29T23:25:20.738Z,37.24
2018-04-29T23:27:49.159Z,36.84
2018-04-29T23:30:18.247Z,36.72
2018-04-29T23:32:46.514Z,36.89
2018-04-29T23:35:14.800Z,37.49
2018-04-29T23:37:44.595Z,37.48
2018-04-29T23:40:12.887Z,37.72
2018-04-29T23:42:41.166Z,38.21
2018-04-29T23:45:09.431Z,38.12
2018-04-29T23:47:37.790Z,37.89
2018-04-29T23:50:05.984Z,38.15
2018-04-29T23:52:34.264Z,38.67
2018-04-29T23:55:02.553Z,38.33
2018-04-29T23:57:31.730Z,38.74
